Bookmark and Share
Track history (hours):
 

Cemenmar Cuatro

Last reported at 2012-Sep-21 10:27 UTC. Time now 2014-Apr-18 13:08 UTC.
Position S 32°04' E 031°12'.
Warning: this ship's position is years out of date!

Length 108 m; draft 4.9 m.

Type: Ship. MMSI: 224864000.

NotesDate/timePositionNaut miles runAvg speedWind from/ knotsBaromVisibWave heightAir tempDewpointWater temp
2012-Sep-21 10:27S 32°04' E 031°12'2111.1
2012-Sep-21 08:34S 32°14' E 030°50'1211.8
2012-Sep-21 07:31S 32°20' E 030°37'  
2012-Sep-18 15:32S 33°55' E 018°17'8 8.2
2012-Sep-18 14:34S 33°54' E 018°26'1 1.1
2012-Sep-18 13:28S 33°55' E 018°26'0 0.0
2012-Sep-18 11:31S 33°55' E 018°26'0 0.0
2012-Sep-18 10:34S 33°55' E 018°26'0 0.0
2012-Sep-18 09:31S 33°55' E 018°26'0 0.0
2012-Sep-18 08:28S 33°55' E 018°26'0 0.0
2012-Sep-18 05:25S 33°55' E 018°26'0 0.0
2012-Sep-18 04:34S 33°55' E 018°26'0 0.0
2012-Sep-18 01:28S 33°55' E 018°26'0 0.0
2012-Sep-17 23:31S 33°55' E 018°26'0 0.0
2012-Sep-17 22:31S 33°55' E 018°26'0 0.0
2012-Sep-17 20:31S 33°55' E 018°26'0 0.0
2012-Sep-17 19:31S 33°55' E 018°26'0 0.0
2012-Sep-17 18:31S 33°55' E 018°26'0 0.0
2012-Sep-17 17:31S 33°55' E 018°26'0 0.0
2012-Sep-17 15:31S 33°55' E 018°26'0 0.0
2012-Sep-17 14:31S 33°55' E 018°26'0 0.0
2012-Sep-17 10:31S 33°55' E 018°26'2 2.1
2012-Sep-17 09:32S 33°53' E 018°28'0 0.1
2012-Sep-17 08:33S 33°53' E 018°28'1 0.8
2012-Sep-17 07:33S 33°53' E 018°27'1312.8
2012-Sep-17 06:33S 33°47' E 018°13'1414.1
2012-Sep-17 05:33S 33°35' E 018°03'2310.6
2012-Sep-17 03:25S 33°18' E 017°46'1213.6
2012-Sep-17 02:33S 33°08' E 017°38'1211.8
2012-Sep-17 01:33S 32°57' E 017°34'7 6.7
2012-Sep-17 00:30S 33°04' E 017°36'37 5.3
2012-Sep-16 17:33S 32°40' E 017°03'1413.6
2012-Sep-16 16:33S 32°29' E 016°53'  

Dump ship's entire track history

sailing weather and tide predictions

Cemenmar Cuatro — EGXH — position and weather